Time;durP1;ratioP1;P1;durP2;ratioP2;P2;SDS_P1;SDS_P2;PMS_P1;PMS_P2;Temp;Humidity;BMP_temperature;BMP_pressure;BME280_temperature;BME280_humidity;BME280_pressure;Samples;Min_cycle;Max_cycle;Signal;HPM_P1;HPM_P2
2023/10/17 00:00:45;;;;;;;9.95;4.55;;;;;;;;;;5099020;28;20056;-59
2023/10/17 00:03:14;;;;;;;7.68;4.45;;;;;;;;;;5099003;28;20059;-59
2023/10/17 00:05:43;;;;;;;7.10;3.40;;;;;;;;;;5098701;28;20055;-58
2023/10/17 00:08:10;;;;;;;6.78;3.60;;;;;;;;;;5098601;28;20055;-59
2023/10/17 00:10:39;;;;;;;6.85;3.92;;;;;;;;;;5098362;28;20075;-59
2023/10/17 00:13:20;;;;;;;6.00;3.72;;;;;;;;;;5098865;28;20508;-59
2023/10/17 00:15:47;;;;;;;7.50;3.83;;;;;;;;;;5098498;28;20445;-59
2023/10/17 00:18:18;;;;;;;4.80;2.72;;;;;;;;;;5098895;28;20438;-59
2023/10/17 00:20:50;;;;;;;5.45;3.40;;;;;;;;;;5098590;28;20047;-59
2023/10/17 00:23:20;;;;;;;7.20;4.15;;;;;;;;;;5098822;28;20051;-59
2023/10/17 00:25:49;;;;;;;;;;;;;;;;;;5099050;28;20397;-58
2023/10/17 00:28:20;;;;;;;7.05;3.80;;;;;;;;;;5098949;28;19919;-59
2023/10/17 00:30:48;;;;;;;4.05;3.00;;;;;;;;;;5098586;28;20048;-59
2023/10/17 00:33:16;;;;;;;6.45;3.15;;;;;;;;;;5098401;28;20064;-59
2023/10/17 00:35:48;;;;;;;7.05;3.85;;;;;;;;;;5098041;28;20623;-59
2023/10/17 00:38:15;;;;;;;4.85;2.80;;;;;;;;;;5098524;28;20484;-60
2023/10/17 00:40:47;;;;;;;5.55;2.72;;;;;;;;;;5098213;28;20068;-60
2023/10/17 00:43:16;;;;;;;9.30;3.53;;;;;;;;;;5098462;28;20055;-59
2023/10/17 00:45:45;;;;;;;6.82;3.88;;;;;;;;;;5097548;28;20055;-59
2023/10/17 00:48:17;;;;;;;13.55;4.00;;;;;;;;;;5097935;28;20056;-59
2023/10/17 00:50:44;;;;;;;7.53;3.90;;;;;;;;;;5098190;28;20388;-59
2023/10/17 00:53:13;;;;;;;6.80;4.00;;;;;;;;;;5096875;28;20070;-60
2023/10/17 00:55:46;;;;;;;6.50;3.47;;;;;;;;;;5098415;28;20056;-59
2023/10/17 00:58:13;;;;;;;7.07;3.75;;;;;;;;;;5098256;28;20055;-59
2023/10/17 01:00:48;;;;;;;9.02;4.90;;;;;;;;;;5097767;28;20079;-61
2023/10/17 01:03:16;;;;;;;7.00;4.55;;;;;;;;;;5098671;28;20504;-61
2023/10/17 01:05:46;;;;;;;7.00;4.50;;;;;;;;;;5094785;28;20059;-60
2023/10/17 01:08:15;;;;;;;7.20;4.25;;;;;;;;;;5095076;28;20052;-60
2023/10/17 01:10:43;;;;;;;6.35;3.97;;;;;;;;;;5094620;28;20048;-59
2023/10/17 01:13:10;;;;;;;6.55;3.65;;;;;;;;;;5095316;28;20063;-60
2023/10/17 01:15:38;;;;;;;5.35;3.58;;;;;;;;;;5094873;28;20059;-60
2023/10/17 01:18:05;;;;;;;5.88;3.58;;;;;;;;;;5094888;28;20051;-60
2023/10/17 01:20:32;;;;;;;5.05;3.28;;;;;;;;;;5094803;28;20051;-60
2023/10/17 01:23:00;;;;;;;5.30;3.75;;;;;;;;;;5095128;28;20055;-60
2023/10/17 01:25:29;;;;;;;5.28;3.65;;;;;;;;;;5094835;28;20405;-60
2023/10/17 01:27:58;;;;;;;7.13;3.58;;;;;;;;;;5094867;28;20066;-60
2023/10/17 01:30:28;;;;;;;7.10;3.35;;;;;;;;;;5094083;28;20433;-60
2023/10/17 01:32:58;;;;;;;6.05;3.40;;;;;;;;;;5095069;28;20500;-59
2023/10/17 01:35:25;;;;;;;;;;;;;;;;;;5095025;28;20056;-60
2023/10/17 01:37:55;;;;;;;6.55;3.58;;;;;;;;;;5095147;28;19927;-60
2023/10/17 01:40:25;;;;;;;4.10;2.90;;;;;;;;;;5094656;28;20044;-60
2023/10/17 01:42:51;;;;;;;;;;;;;;;;;;5095188;28;20404;-60
2023/10/17 01:45:23;;;;;;;5.28;2.72;;;;;;;;;;5094948;28;19928;-60
2023/10/17 01:47:51;;;;;;;7.00;3.88;;;;;;;;;;5094328;28;20063;-60
2023/10/17 01:50:19;;;;;;;6.75;3.92;;;;;;;;;;5094063;28;20052;-60
2023/10/17 01:52:46;;;;;;;7.13;4.47;;;;;;;;;;5094614;28;20056;-60
2023/10/17 01:55:24;;;;;;;5.95;3.63;;;;;;;;;;5094163;28;20067;-60
2023/10/17 01:57:54;;;;;;;6.75;3.72;;;;;;;;;;5094328;28;20048;-60
2023/10/17 02:00:36;;;;;;;5.78;3.88;;;;;;;;;;5094405;28;20397;-60
2023/10/17 02:03:04;;;;;;;5.18;3.42;;;;;;;;;;5094232;28;20059;-60
2023/10/17 02:05:33;;;;;;;5.65;3.33;;;;;;;;;;5114229;28;20489;-60
2023/10/17 02:08:00;;;;;;;6.90;4.22;;;;;;;;;;5114605;28;20464;-60
2023/10/17 02:10:32;;;;;;;5.78;3.90;;;;;;;;;;5114279;28;20508;-60
2023/10/17 02:13:00;;;;;;;7.30;3.97;;;;;;;;;;5114613;28;20051;-60
2023/10/17 02:15:30;;;;;;;5.50;2.90;;;;;;;;;;5113708;28;20058;-60
2023/10/17 02:17:57;;;;;;;6.38;3.72;;;;;;;;;;5113811;28;20062;-60
2023/10/17 02:20:29;;;;;;;6.32;3.83;;;;;;;;;;5114139;28;20424;-60
2023/10/17 02:22:57;;;;;;;4.60;3.00;;;;;;;;;;5114570;28;20056;-62
2023/10/17 02:25:31;;;;;;;4.22;3.10;;;;;;;;;;5114019;28;20412;-63
2023/10/17 02:27:58;;;;;;;6.40;3.42;;;;;;;;;;5114326;28;20065;-62
2023/10/17 02:30:25;;;;;;;5.82;3.33;;;;;;;;;;5114111;28;20538;-63
2023/10/17 02:32:53;;;;;;;4.97;3.38;;;;;;;;;;5114319;28;20051;-63
2023/10/17 02:35:28;;;;;;;4.70;3.45;;;;;;;;;;5114121;28;20056;-62
2023/10/17 02:37:56;;;;;;;6.15;3.65;;;;;;;;;;5114222;28;20055;-63
2023/10/17 02:40:24;;;;;;;6.22;3.78;;;;;;;;;;5113810;28;20044;-63
2023/10/17 02:42:51;;;;;;;5.35;3.30;;;;;;;;;;5113960;28;20404;-63
2023/10/17 02:45:24;;;;;;;4.85;3.25;;;;;;;;;;5113600;28;20051;-63
2023/10/17 02:47:54;;;;;;;5.25;3.20;;;;;;;;;;5113886;28;20056;-63
2023/10/17 02:50:41;;;;;;;4.45;3.30;;;;;;;;;;5113035;28;20050;-62
2023/10/17 02:53:12;;;;;;;5.15;3.55;;;;;;;;;;5114000;28;20062;-62
2023/10/17 02:55:38;;;;;;;4.35;3.35;;;;;;;;;;5113737;28;20051;-63
2023/10/17 02:58:05;;;;;;;5.78;3.42;;;;;;;;;;5113873;28;20062;-62
2023/10/17 03:00:34;;;;;;;5.90;3.58;;;;;;;;;;5113260;28;20047;-63
2023/10/17 03:03:12;;;;;;;6.40;3.00;;;;;;;;;;5113558;28;20075;-62
2023/10/17 03:05:41;;;;;;;4.60;3.25;;;;;;;;;;5113119;28;20480;-62
2023/10/17 03:08:15;;;;;;;6.22;3.72;;;;;;;;;;5113410;28;20056;-62
2023/10/17 03:10:43;;;;;;;4.70;3.15;;;;;;;;;;5112815;28;20051;-63
2023/10/17 03:13:14;;;;;;;5.35;3.85;;;;;;;;;;5113405;28;20444;-63
2023/10/17 03:15:45;;;;;;;4.80;3.28;;;;;;;;;;5113068;28;20047;-63
2023/10/17 03:18:16;;;;;;;4.88;3.20;;;;;;;;;;5113209;28;20468;-63
2023/10/17 03:20:50;;;;;;;6.13;3.50;;;;;;;;;;5113044;28;20044;-63
2023/10/17 03:23:17;;;;;;;6.82;3.50;;;;;;;;;;5113371;28;20051;-63
2023/10/17 03:25:46;;;;;;;9.68;3.80;;;;;;;;;;5113291;28;20047;-62
2023/10/17 03:28:15;;;;;;;4.57;3.47;;;;;;;;;;5113011;28;20047;-62
2023/10/17 03:30:42;;;;;;;6.00;3.95;;;;;;;;;;5113161;28;20051;-62
2023/10/17 03:33:13;;;;;;;5.72;3.80;;;;;;;;;;5113303;28;20048;-63
2023/10/17 03:36:03;;;;;;;6.25;3.50;;;;;;;;;;5112624;28;20507;-62
2023/10/17 03:38:32;;;;;;;5.72;4.07;;;;;;;;;;5112903;28;20054;-62
2023/10/17 03:41:04;;;;;;;4.40;3.38;;;;;;;;;;5113064;28;20043;-62
2023/10/17 03:43:38;;;;;;;5.88;4.32;;;;;;;;;;5112818;28;20051;-62
2023/10/17 03:46:05;;;;;;;5.30;3.53;;;;;;;;;;5112518;28;20052;-62
2023/10/17 03:48:36;;;;;;;7.53;4.57;;;;;;;;;;5112531;28;20055;-62
2023/10/17 03:51:15;;;;;;;5.47;3.67;;;;;;;;;;5112636;28;20051;-62
2023/10/17 03:53:46;;;;;;;5.35;3.88;;;;;;;;;;5112861;28;20060;-62
2023/10/17 03:56:23;;;;;;;5.90;3.88;;;;;;;;;;5112304;28;20052;-63
2023/10/17 03:58:53;;;;;;;5.43;4.07;;;;;;;;;;5109113;28;20054;-62
2023/10/17 04:01:23;;;;;;;7.30;4.43;;;;;;;;;;5091897;28;20052;-62
2023/10/17 04:03:53;;;;;;;10.40;4.22;;;;;;;;;;5091913;28;20493;-62
2023/10/17 04:06:32;;;;;;;5.15;3.80;;;;;;;;;;5092457;28;20052;-62
2023/10/17 04:09:15;;;;;;;6.25;4.40;;;;;;;;;;5092216;28;20059;-62
2023/10/17 04:11:45;;;;;;;6.63;4.22;;;;;;;;;;5092226;28;20142;-62
2023/10/17 04:14:12;;;;;;;;;;;;;;;;;;5092977;28;20052;-62
2023/10/17 04:16:39;;;;;;;6.75;4.13;;;;;;;;;;5092063;28;19927;-62
2023/10/17 04:19:07;;;;;;;6.28;3.60;;;;;;;;;;5092270;28;20056;-62
2023/10/17 04:21:38;;;;;;;5.78;3.83;;;;;;;;;;5091855;28;20051;-62
2023/10/17 04:24:06;;;;;;;5.95;4.20;;;;;;;;;;5091997;28;20063;-61
2023/10/17 04:26:34;;;;;;;7.53;4.53;;;;;;;;;;5091774;28;20389;-61
2023/10/17 04:29:11;;;;;;;6.78;4.22;;;;;;;;;;5092178;28;20056;-61
2023/10/17 04:31:38;;;;;;;8.85;5.47;;;;;;;;;;5091692;28;20048;-61
2023/10/17 04:34:06;;;;;;;5.65;4.18;;;;;;;;;;5092057;28;20056;-61
2023/10/17 04:36:37;;;;;;;5.95;4.10;;;;;;;;;;5091737;28;20481;-61
2023/10/17 04:39:18;;;;;;;7.05;4.15;;;;;;;;;;5092054;28;20439;-61
2023/10/17 04:44:34;;;;;;;6.63;4.30;;;;;;;;;;5101597;28;20048;-62
2023/10/17 04:47:22;;;;;;;6.22;3.42;;;;;;;;;;5082143;28;20478;-62
2023/10/17 04:49:50;;;;;;;6.53;3.80;;;;;;;;;;5074932;28;20056;-62
2023/10/17 04:52:19;;;;;;;6.50;4.07;;;;;;;;;;5074643;28;20147;-62
2023/10/17 04:54:48;;;;;;;7.38;4.10;;;;;;;;;;5074617;28;20378;-62
2023/10/17 04:57:16;;;;;;;6.03;3.80;;;;;;;;;;5074735;28;20489;-62
2023/10/17 04:59:51;;;;;;;6.18;4.30;;;;;;;;;;5074741;28;20148;-64
2023/10/17 05:02:36;;;;;;;6.38;4.28;;;;;;;;;;5075021;28;20052;-62
2023/10/17 06:17:17;;;;;;;6.38;5.05;;;;;;;;;;5077771;28;20057;-61
2023/10/17 06:19:43;;;;;;;9.40;4.45;;;;;;;;;;5073064;28;20057;-61
2023/10/17 06:28:20;;;;;;;8.02;5.43;;;;;;;;;;5072322;28;20052;-61
2023/10/17 06:30:47;;;;;;;7.38;5.05;;;;;;;;;;5072420;28;20064;-60
2023/10/17 06:33:19;;;;;;;9.95;6.45;;;;;;;;;;5073121;28;20048;-63
2023/10/17 06:35:46;;;;;;;7.65;5.25;;;;;;;;;;5073363;28;20059;-63
2023/10/17 06:38:16;;;;;;;9.18;5.13;;;;;;;;;;5072877;28;20053;-63
2023/10/17 06:40:45;;;;;;;8.35;4.80;;;;;;;;;;5072843;28;20063;-61
2023/10/17 06:43:17;;;;;;;7.35;4.78;;;;;;;;;;5072870;28;20052;-61
2023/10/17 06:45:52;;;;;;;8.30;4.93;;;;;;;;;;5072479;28;20048;-61
2023/10/17 06:48:28;;;;;;;8.10;4.63;;;;;;;;;;5072240;28;20053;-61
2023/10/17 06:53:47;;;;;;;8.23;4.72;;;;;;;;;;5078956;28;20052;-61
2023/10/17 06:56:14;;;;;;;7.75;4.57;;;;;;;;;;5072090;28;20071;-62
2023/10/17 06:58:41;;;;;;;7.55;4.30;;;;;;;;;;5072961;28;20064;-61
2023/10/17 07:01:19;;;;;;;8.00;4.20;;;;;;;;;;5071923;28;20044;-62
2023/10/17 07:03:47;;;;;;;6.47;4.30;;;;;;;;;;5071950;28;20052;-62
2023/10/17 07:06:14;;;;;;;6.03;4.47;;;;;;;;;;5072567;28;20075;-61
2023/10/17 07:08:41;;;;;;;6.05;4.15;;;;;;;;;;5090023;28;20059;-61
2023/10/17 07:11:24;;;;;;;9.57;4.93;;;;;;;;;;5092518;28;20048;-61
2023/10/17 07:13:55;;;;;;;6.57;4.43;;;;;;;;;;5092346;28;20047;-61
2023/10/17 07:16:26;;;;;;;8.45;4.75;;;;;;;;;;5092005;28;20056;-62
2023/10/17 07:18:57;;;;;;;9.27;5.47;;;;;;;;;;5092459;28;20056;-62
2023/10/17 07:21:24;;;;;;;7.35;4.63;;;;;;;;;;5092574;28;20492;-62
2023/10/17 07:23:54;;;;;;;7.25;4.60;;;;;;;;;;5092549;28;20421;-61
2023/10/17 07:26:38;;;;;;;5.03;3.90;;;;;;;;;;5092377;28;20075;-62
2023/10/17 07:29:05;;;;;;;5.93;4.50;;;;;;;;;;5092775;28;20074;-61
2023/10/17 07:31:32;;;;;;;6.68;4.47;;;;;;;;;;5092109;28;20051;-61
2023/10/17 07:36:43;;;;;;;6.55;3.97;;;;;;;;;;5091992;28;20056;-62
2023/10/17 07:39:21;;;;;;;6.47;4.43;;;;;;;;;;5092245;28;20059;-62
2023/10/17 07:41:53;;;;;;;5.65;4.05;;;;;;;;;;5092229;28;20052;-62
2023/10/17 07:44:21;;;;;;;5.05;3.97;;;;;;;;;;5092451;28;20056;-61
2023/10/17 07:47:00;;;;;;;5.20;3.55;;;;;;;;;;5092248;28;20063;-61
2023/10/17 07:49:29;;;;;;;5.37;3.70;;;;;;;;;;5092398;28;20420;-61
2023/10/17 07:51:58;;;;;;;6.32;4.00;;;;;;;;;;5091759;28;20052;-61
2023/10/17 07:54:28;;;;;;;5.35;4.07;;;;;;;;;;5092192;28;20056;-61
2023/10/17 07:56:58;;;;;;;6.03;3.97;;;;;;;;;;5091706;28;20052;-61
2023/10/17 07:59:31;;;;;;;4.72;3.65;;;;;;;;;;5092444;28;20413;-62
2023/10/17 08:01:59;;;;;;;4.82;3.75;;;;;;;;;;5092205;28;20052;-61
2023/10/17 08:04:31;;;;;;;7.05;3.88;;;;;;;;;;5092403;28;20424;-61
2023/10/17 08:06:57;;;;;;;5.60;3.80;;;;;;;;;;5091711;28;20052;-62
2023/10/17 08:09:35;;;;;;;6.80;3.90;;;;;;;;;;5092115;28;20051;-61
2023/10/17 08:12:04;;;;;;;7.05;4.55;;;;;;;;;;5091730;28;20048;-61
2023/10/17 08:14:34;;;;;;;5.93;4.45;;;;;;;;;;5094737;28;20056;-61
2023/10/17 08:17:01;;;;;;;5.35;4.18;;;;;;;;;;5095723;28;20063;-62
2023/10/17 08:19:36;;;;;;;4.97;3.45;;;;;;;;;;5095644;28;20052;-61
2023/10/17 08:22:10;;;;;;;10.50;4.65;;;;;;;;;;5095822;28;20051;-62
2023/10/17 08:24:44;;;;;;;11.25;5.72;;;;;;;;;;5095576;28;20499;-61
2023/10/17 08:27:17;;;;;;;11.77;4.15;;;;;;;;;;5095743;28;20052;-62
2023/10/17 08:29:48;;;;;;;5.47;3.67;;;;;;;;;;5095816;28;20481;-62
2023/10/17 08:32:38;;;;;;;5.88;4.47;;;;;;;;;;5095977;28;20048;-62
2023/10/17 08:35:09;;;;;;;5.00;3.40;;;;;;;;;;5095845;28;20052;-62
2023/10/17 08:37:43;;;;;;;6.93;3.90;;;;;;;;;;5096153;28;20477;-62
2023/10/17 08:40:29;;;;;;;4.38;3.45;;;;;;;;;;5095725;28;20074;-62
2023/10/17 08:42:56;;;;;;;5.50;3.42;;;;;;;;;;5095500;28;20477;-62
2023/10/17 08:45:26;;;;;;;4.38;3.25;;;;;;;;;;5095603;28;20056;-62
2023/10/17 08:47:54;;;;;;;4.03;3.20;;;;;;;;;;5095611;28;20060;-63
2023/10/17 08:50:24;;;;;;;5.33;3.13;;;;;;;;;;5094889;28;20052;-62
2023/10/17 08:52:53;;;;;;;3.03;2.55;;;;;;;;;;5095427;28;20051;-62
2023/10/17 08:55:19;;;;;;;;;;;;;;;;;;5096211;28;20056;-62
2023/10/17 08:57:46;;;;;;;4.53;3.30;;;;;;;;;;5095750;28;19920;-63
2023/10/17 09:00:24;;;;;;;3.97;2.90;;;;;;;;;;5095302;28;20058;-62
2023/10/17 09:03:00;;;;;;;4.25;3.05;;;;;;;;;;5095186;28;20048;-62
2023/10/17 09:05:29;;;;;;;4.35;3.25;;;;;;;;;;5095282;28;20071;-63
2023/10/17 09:07:58;;;;;;;5.43;3.05;;;;;;;;;;5094812;28;20048;-63
2023/10/17 09:10:36;;;;;;;5.05;3.30;;;;;;;;;;5095249;28;20048;-63
2023/10/17 09:13:52;;;;;;;5.53;2.72;;;;;;;;;;5095625;28;20063;-63
2023/10/17 09:16:08;;;;;;;5.90;2.55;;;;;;;;;;5095092;28;20074;-63
2023/10/17 09:18:40;;;;;;;6.75;2.85;;;;;;;;;;5094945;28;20382;-62
2023/10/17 09:21:08;;;;;;;4.00;2.80;;;;;;;;;;5094575;28;20048;-62
2023/10/17 09:23:38;;;;;;;4.22;2.88;;;;;;;;;;5094840;28;20048;-62
2023/10/17 09:26:10;;;;;;;5.10;2.72;;;;;;;;;;5094263;28;20059;-62
2023/10/17 09:28:37;;;;;;;5.18;3.10;;;;;;;;;;5094880;28;20052;-63
2023/10/17 09:31:06;;;;;;;4.22;2.25;;;;;;;;;;5095089;28;20078;-62
2023/10/17 09:33:33;;;;;;;3.10;2.60;;;;;;;;;;5094821;28;20044;-62
2023/10/17 09:36:03;;;;;;;3.85;2.22;;;;;;;;;;5094835;28;20373;-62
2023/10/17 09:38:33;;;;;;;4.55;2.35;;;;;;;;;;5094832;28;20063;-62
2023/10/17 09:41:00;;;;;;;3.05;2.55;;;;;;;;;;5094580;28;20417;-62
2023/10/17 09:43:27;;;;;;;3.33;2.08;;;;;;;;;;5094713;28;20389;-62
2023/10/17 09:45:56;;;;;;;3.75;2.38;;;;;;;;;;5091003;28;20056;-63
2023/10/17 09:48:27;;;;;;;3.35;2.17;;;;;;;;;;5074623;28;20397;-62
2023/10/17 09:50:56;;;;;;;4.03;2.38;;;;;;;;;;5074076;28;20485;-63
2023/10/17 09:53:23;;;;;;;3.00;2.20;;;;;;;;;;5074624;28;20057;-63
2023/10/17 09:55:53;;;;;;;2.60;1.85;;;;;;;;;;5073902;28;20056;-63
2023/10/17 09:58:22;;;;;;;3.30;1.98;;;;;;;;;;5074503;28;20055;-62
2023/10/17 10:00:51;;;;;;;4.25;2.47;;;;;;;;;;5073854;28;20053;-62
2023/10/17 10:03:19;;;;;;;4.53;2.13;;;;;;;;;;5074020;28;20048;-63
2023/10/17 10:05:46;;;;;;;2.97;2.17;;;;;;;;;;5073888;28;20531;-63
2023/10/17 10:08:32;;;;;;;3.33;1.80;;;;;;;;;;5074005;28;20508;-63
2023/10/17 10:11:00;;;;;;;3.67;2.00;;;;;;;;;;5073571;28;20417;-63
2023/10/17 10:13:28;;;;;;;4.47;1.98;;;;;;;;;;5074153;28;20409;-63
2023/10/17 10:15:58;;;;;;;3.53;1.90;;;;;;;;;;5073760;28;20136;-63
2023/10/17 10:18:43;;;;;;;3.05;1.95;;;;;;;;;;5074032;28;20416;-63
2023/10/17 10:21:12;;;;;;;3.63;1.38;;;;;;;;;;5074170;28;20056;-63
2023/10/17 10:23:39;;;;;;;2.08;1.67;;;;;;;;;;5073446;28;20060;-63
2023/10/17 10:26:19;;;;;;;2.38;1.48;;;;;;;;;;5073505;28;20056;-63
2023/10/17 10:28:46;;;;;;;3.28;1.50;;;;;;;;;;5073535;28;20056;-63
2023/10/17 10:31:43;;;;;;;1.98;1.20;;;;;;;;;;5073518;28;20485;-62
2023/10/17 10:34:10;;;;;;;2.40;1.52;;;;;;;;;;5011659;28;20050;-62
2023/10/17 10:36:38;;;;;;;4.10;1.60;;;;;;;;;;5058534;28;20393;-62
2023/10/17 10:39:12;;;;;;;1.92;1.20;;;;;;;;;;5072835;28;20060;-64
2023/10/17 10:41:54;;;;;;;2.20;1.40;;;;;;;;;;5073313;28;20052;-64
2023/10/17 10:44:21;;;;;;;3.10;1.83;;;;;;;;;;5073309;28;20059;-63
2023/10/17 10:46:48;;;;;;;4.13;2.30;;;;;;;;;;5083630;28;20496;-64
2023/10/17 10:49:15;;;;;;;2.90;1.83;;;;;;;;;;5093279;28;20052;-64
2023/10/17 10:51:47;;;;;;;2.17;1.57;;;;;;;;;;5093470;28;20059;-63
2023/10/17 10:54:14;;;;;;;2.00;1.25;;;;;;;;;;5093681;28;20473;-63
2023/10/17 10:56:50;;;;;;;3.60;1.33;;;;;;;;;;5093262;28;20060;-63
2023/10/17 10:59:20;;;;;;;2.25;0.93;;;;;;;;;;5093491;28;20059;-63
2023/10/17 11:01:48;;;;;;;1.95;1.00;;;;;;;;;;5093434;28;20507;-63
2023/10/17 11:04:15;;;;;;;2.25;1.20;;;;;;;;;;5113422;28;20496;-63
2023/10/17 11:06:41;;;;;;;2.35;0.93;;;;;;;;;;5113645;28;20472;-63
2023/10/17 11:09:15;;;;;;;3.40;1.00;;;;;;;;;;5113442;28;20055;-63
2023/10/17 11:11:47;;;;;;;1.70;1.05;;;;;;;;;;5113649;28;20051;-63
2023/10/17 11:14:16;;;;;;;2.47;1.00;;;;;;;;;;5113770;28;20048;-63
2023/10/17 11:16:43;;;;;;;2.97;1.10;;;;;;;;;;5113508;28;20055;-63
2023/10/17 11:19:19;;;;;;;2.05;1.00;;;;;;;;;;5113627;28;20043;-63
2023/10/17 11:21:52;;;;;;;1.30;0.90;;;;;;;;;;5113529;28;20397;-63
2023/10/17 11:24:19;;;;;;;1.73;0.88;;;;;;;;;;5113190;28;20044;-63
2023/10/17 11:26:50;;;;;;;2.47;0.90;;;;;;;;;;5113180;28;20047;-63
2023/10/17 11:29:18;;;;;;;2.17;1.00;;;;;;;;;;5113198;28;20048;-63
2023/10/17 11:31:47;;;;;;;0.90;0.70;;;;;;;;;;5113311;28;20400;-63
2023/10/17 11:34:14;;;;;;;1.80;0.70;;;;;;;;;;5113013;28;20048;-63
2023/10/17 11:36:51;;;;;;;1.30;0.60;;;;;;;;;;5113219;28;20048;-63
2023/10/17 11:39:18;;;;;;;2.38;0.80;;;;;;;;;;5113388;28;20056;-63
2023/10/17 11:41:48;;;;;;;2.45;1.70;;;;;;;;;;5113238;28;20048;-62
2023/10/17 11:44:17;;;;;;;3.25;2.03;;;;;;;;;;5113198;28;20404;-62
2023/10/17 11:46:55;;;;;;;3.20;2.50;;;;;;;;;;5113280;28;20058;-63
2023/10/17 11:49:21;;;;;;;;;;;;;;;;;;5113468;28;20063;-63
2023/10/17 11:51:51;;;;;;;3.10;2.50;;;;;;;;;;5112778;28;19926;-63
2023/10/17 11:54:22;;;;;;;4.22;2.92;;;;;;;;;;5113271;28;20044;-63
2023/10/17 11:56:52;;;;;;;3.20;2.80;;;;;;;;;;5113026;28;20047;-63
2023/10/17 11:59:20;;;;;;;3.20;2.80;;;;;;;;;;5113088;28;20409;-63
2023/10/17 12:01:49;;;;;;;3.08;2.40;;;;;;;;;;5112856;28;20058;-63
2023/10/17 12:04:16;;;;;;;4.88;2.72;;;;;;;;;;5112722;28;20055;-63
2023/10/17 12:06:47;;;;;;;4.32;3.08;;;;;;;;;;5112975;28;20052;-63
2023/10/17 12:09:22;;;;;;;4.05;3.00;;;;;;;;;;5112945;28;20056;-63
2023/10/17 12:11:50;;;;;;;3.83;3.10;;;;;;;;;;5112888;28;20052;-63
2023/10/17 12:14:20;;;;;;;4.40;3.25;;;;;;;;;;5112756;28;20054;-62
2023/10/17 12:16:53;;;;;;;4.35;3.03;;;;;;;;;;5112776;28;20055;-62
2023/10/17 12:19:20;;;;;;;4.15;3.05;;;;;;;;;;5112866;28;20051;-62
2023/10/17 12:21:48;;;;;;;3.97;3.10;;;;;;;;;;5112629;28;20060;-62
2023/10/17 12:24:19;;;;;;;5.28;2.83;;;;;;;;;;5112487;28;20114;-63
2023/10/17 12:26:47;;;;;;;5.38;3.03;;;;;;;;;;5112310;28;20412;-63
2023/10/17 12:29:14;;;;;;;3.38;2.83;;;;;;;;;;5112539;28;20063;-62
2023/10/17 12:31:40;;;;;;;3.40;2.80;;;;;;;;;;5112814;28;20055;-63
2023/10/17 12:34:15;;;;;;;5.40;2.63;;;;;;;;;;5112711;28;20055;-63
2023/10/17 12:36:42;;;;;;;3.70;2.60;;;;;;;;;;5112165;28;20472;-62
2023/10/17 12:39:09;;;;;;;4.13;2.80;;;;;;;;;;5112529;28;20047;-62
2023/10/17 12:41:36;;;;;;;3.92;2.20;;;;;;;;;;5112220;28;20047;-63
2023/10/17 12:44:06;;;;;;;4.22;2.20;;;;;;;;;;5111929;28;20400;-63
2023/10/17 12:46:33;;;;;;;3.30;2.45;;;;;;;;;;5112175;28;20503;-62
2023/10/17 12:49:00;;;;;;;4.03;2.50;;;;;;;;;;5112507;28;20365;-63
2023/10/17 12:51:28;;;;;;;3.75;2.50;;;;;;;;;;5112441;28;20056;-63
2023/10/17 12:54:00;;;;;;;3.17;1.95;;;;;;;;;;5112239;28;20047;-62
2023/10/17 12:56:27;;;;;;;4.00;2.10;;;;;;;;;;5112028;28;20086;-63
2023/10/17 12:58:54;;;;;;;3.08;1.95;;;;;;;;;;5112529;28;20055;-63
2023/10/17 13:01:24;;;;;;;3.95;2.20;;;;;;;;;;5114348;28;20059;-63
2023/10/17 13:03:53;;;;;;;3.20;2.47;;;;;;;;;;5115918;28;20059;-62
2023/10/17 13:06:20;;;;;;;3.53;2.53;;;;;;;;;;5115944;28;20412;-62
2023/10/17 13:08:56;;;;;;;3.25;2.70;;;;;;;;;;5115621;28;20055;-62
2023/10/17 13:11:23;;;;;;;3.22;2.83;;;;;;;;;;5115517;28;20404;-62
2023/10/17 13:13:50;;;;;;;3.38;2.70;;;;;;;;;;5115609;28;20044;-61
2023/10/17 13:16:17;;;;;;;3.40;2.70;;;;;;;;;;5115722;28;20404;-62
2023/10/17 13:18:47;;;;;;;2.35;2.15;;;;;;;;;;5115439;28;20057;-62
2023/10/17 13:21:14;;;;;;;2.38;2.17;;;;;;;;;;5115456;28;20079;-62
2023/10/17 13:23:41;;;;;;;2.40;2.20;;;;;;;;;;5115421;28;20416;-62
2023/10/17 13:26:12;;;;;;;2.40;2.20;;;;;;;;;;5115370;28;20048;-61
2023/10/17 13:28:39;;;;;;;3.58;2.55;;;;;;;;;;5115234;28;20055;-61
2023/10/17 13:31:09;;;;;;;3.30;2.45;;;;;;;;;;5115454;28;20051;-61
2023/10/17 13:33:36;;;;;;;3.13;2.55;;;;;;;;;;5115554;28;20460;-61
2023/10/17 13:36:02;;;;;;;2.92;2.53;;;;;;;;;;5115204;28;20054;-61
2023/10/17 13:38:29;;;;;;;3.28;2.70;;;;;;;;;;5115627;28;20048;-61
2023/10/17 13:41:06;;;;;;;3.72;2.70;;;;;;;;;;5115235;28;20400;-61
2023/10/17 13:43:38;;;;;;;3.33;2.28;;;;;;;;;;5115201;28;20480;-61
2023/10/17 13:46:10;;;;;;;2.80;2.58;;;;;;;;;;5114850;28;20062;-61
2023/10/17 13:48:37;;;;;;;2.80;2.50;;;;;;;;;;5115192;28;20055;-61
2023/10/17 13:51:06;;;;;;;2.63;2.42;;;;;;;;;;5115324;28;20063;-61
2023/10/17 13:53:33;;;;;;;3.65;3.08;;;;;;;;;;5114806;28;20059;-61
2023/10/17 13:56:07;;;;;;;3.92;3.40;;;;;;;;;;5114856;28;20162;-61
2023/10/17 13:58:38;;;;;;;4.68;3.15;;;;;;;;;;5114967;28;20058;-61
2023/10/17 14:01:27;;;;;;;2.90;2.42;;;;;;;;;;5115030;28;20051;-61
2023/10/17 14:03:52;;;;;;;5.13;4.70;;;;;;;;;;5114660;28;20059;-61
2023/10/17 14:06:20;;;;;;;4.47;3.63;;;;;;;;;;5114756;28;20488;-62
2023/10/17 14:08:46;;;;;;;2.90;2.70;;;;;;;;;;5114662;28;20054;-61
2023/10/17 14:11:17;;;;;;;2.85;2.55;;;;;;;;;;5114504;28;20423;-61
2023/10/17 14:13:46;;;;;;;4.07;3.88;;;;;;;;;;5114783;28;20047;-61
2023/10/17 14:16:15;;;;;;;3.22;2.97;;;;;;;;;;5114162;28;20055;-61
2023/10/17 14:18:43;;;;;;;3.85;3.47;;;;;;;;;;5114446;28;20404;-61
2023/10/17 14:21:23;;;;;;;2.95;1.92;;;;;;;;;;5114117;28;20051;-61
2023/10/17 14:23:58;;;;;;;2.97;2.00;;;;;;;;;;5114468;28;20074;-61
2023/10/17 14:26:26;;;;;;;3.13;2.92;;;;;;;;;;5114384;28;20056;-61
2023/10/17 14:28:54;;;;;;;2.40;2.20;;;;;;;;;;5114015;28;20055;-61
2023/10/17 14:31:21;;;;;;;2.00;1.45;;;;;;;;;;5113854;28;20058;-61
2023/10/17 14:33:52;;;;;;;1.92;1.25;;;;;;;;;;5114359;28;20056;-62
2023/10/17 14:36:19;;;;;;;1.40;1.20;;;;;;;;;;5114127;28;20477;-61
2023/10/17 14:38:46;;;;;;;2.22;1.27;;;;;;;;;;5114291;28;20078;-62
2023/10/17 14:41:16;;;;;;;3.05;1.55;;;;;;;;;;5113589;28;20052;-62
2023/10/17 14:43:46;;;;;;;2.00;1.10;;;;;;;;;;5113631;28;20055;-61
2023/10/17 14:46:18;;;;;;;1.70;1.00;;;;;;;;;;5113428;28;20051;-61
2023/10/17 14:48:48;;;;;;;2.05;1.10;;;;;;;;;;5113587;28;20044;-62
2023/10/17 14:51:15;;;;;;;2.78;1.00;;;;;;;;;;5113794;28;20386;-62
2023/10/17 14:53:43;;;;;;;2.55;1.25;;;;;;;;;;5113699;28;20151;-62
2023/10/17 14:56:12;;;;;;;3.22;1.27;;;;;;;;;;5113647;28;20054;-61
2023/10/17 14:58:42;;;;;;;4.40;1.20;;;;;;;;;;5113716;28;20488;-61
2023/10/17 15:01:10;;;;;;;2.03;1.40;;;;;;;;;;5113161;28;20047;-62
2023/10/17 15:03:42;;;;;;;2.47;1.00;;;;;;;;;;5113668;28;20063;-62
2023/10/17 15:06:09;;;;;;;3.03;1.70;;;;;;;;;;5113380;28;20059;-61
2023/10/17 15:08:36;;;;;;;2.30;1.60;;;;;;;;;;5113389;28;20055;-61
2023/10/17 15:11:04;;;;;;;2.92;1.23;;;;;;;;;;5113106;28;20492;-61
2023/10/17 15:13:32;;;;;;;2.45;1.20;;;;;;;;;;5105095;28;20063;-62
2023/10/17 15:15:59;;;;;;;3.22;1.20;;;;;;;;;;5113153;28;20059;-62
2023/10/17 15:18:26;;;;;;;5.05;2.88;;;;;;;;;;5113380;28;20056;-61
2023/10/17 15:21:02;;;;;;;3.08;2.00;;;;;;;;;;5113246;28;20054;-62
2023/10/17 15:23:29;;;;;;;3.80;2.17;;;;;;;;;;5112930;28;20392;-61
2023/10/17 15:25:56;;;;;;;6.38;3.28;;;;;;;;;;5112769;28;20044;-61
2023/10/17 15:28:23;;;;;;;5.70;3.42;;;;;;;;;;5113226;28;20421;-61
2023/10/17 15:30:50;;;;;;;4.43;1.90;;;;;;;;;;5113011;28;20078;-61
2023/10/17 15:33:17;;;;;;;2.78;1.88;;;;;;;;;;5113151;28;20070;-61
2023/10/17 15:35:46;;;;;;;4.07;2.20;;;;;;;;;;5112982;28;20059;-62
2023/10/17 15:38:15;;;;;;;16.80;7.47;;;;;;;;;;5113156;28;20056;-60
2023/10/17 15:40:42;;;;;;;;;;;;;;;;;;5113230;28;20078;-61
2023/10/17 15:43:11;;;;;;;10.65;6.20;;;;;;;;;;5113025;28;19919;-61
2023/10/17 15:45:48;;;;;;;3.78;2.30;;;;;;;;;;5112648;28;20043;-61
2023/10/17 15:48:15;;;;;;;5.03;3.40;;;;;;;;;;5113020;28;20468;-61
2023/10/17 15:50:42;;;;;;;4.03;2.00;;;;;;;;;;5112922;28;20448;-61
2023/10/17 15:53:09;;;;;;;9.18;3.78;;;;;;;;;;5104151;28;20054;-61
2023/10/17 15:55:38;;;;;;;6.90;3.75;;;;;;;;;;5112531;28;20044;-61
2023/10/17 15:58:05;;;;;;;3.55;2.70;;;;;;;;;;5112911;28;20076;-61
2023/10/17 16:00:32;;;;;;;9.57;5.25;;;;;;;;;;5112415;28;20056;-61
2023/10/17 16:02:59;;;;;;;6.28;3.40;;;;;;;;;;5112746;28;20059;-60
2023/10/17 16:05:27;;;;;;;5.75;2.97;;;;;;;;;;5112564;28;20058;-61
2023/10/17 16:07:54;;;;;;;6.30;3.50;;;;;;;;;;5112663;28;20058;-61
2023/10/17 16:10:21;;;;;;;7.20;4.20;;;;;;;;;;5112383;28;20054;-61
2023/10/17 16:12:50;;;;;;;8.35;4.10;;;;;;;;;;5112497;28;20047;-61
2023/10/17 16:15:16;;;;;;;9.43;5.25;;;;;;;;;;5112221;28;20048;-62
2023/10/17 16:17:43;;;;;;;6.70;3.72;;;;;;;;;;5112109;28;20059;-61
2023/10/17 16:20:11;;;;;;;7.32;4.28;;;;;;;;;;5112313;28;20052;-61
2023/10/17 16:22:38;;;;;;;10.88;5.95;;;;;;;;;;5112621;28;20105;-61
2023/10/17 16:25:05;;;;;;;19.63;9.10;;;;;;;;;;5111977;28;20055;-61
2023/10/17 16:27:33;;;;;;;17.80;8.52;;;;;;;;;;5112293;28;20054;-62
2023/10/17 16:30:02;;;;;;;16.35;9.05;;;;;;;;;;5104006;28;20131;-62